sensor_id;sensor_type;location;lat;lon;timestamp;P1;durP1;ratioP1;P2;durP2;ratioP2
27847;SDS011;15212;48.830;8.730;2023-06-05T00:02:05;4.50;;;2.30;;
27847;SDS011;15212;48.830;8.730;2023-06-05T00:04:33;5.40;;;2.37;;
27847;SDS011;15212;48.830;8.730;2023-06-05T00:07:05;4.03;;;1.85;;
27847;SDS011;15212;48.830;8.730;2023-06-05T00:09:33;6.42;;;2.08;;
27847;SDS011;15212;48.830;8.730;2023-06-05T00:12:02;3.95;;;2.15;;
27847;SDS011;15212;48.830;8.730;2023-06-05T00:14:31;3.30;;;1.80;;
27847;SDS011;15212;48.830;8.730;2023-06-05T00:16:59;5.10;;;2.02;;
27847;SDS011;15212;48.830;8.730;2023-06-05T00:19:27;6.47;;;2.25;;
27847;SDS011;15212;48.830;8.730;2023-06-05T00:21:56;5.15;;;2.35;;
27847;SDS011;15212;48.830;8.730;2023-06-05T00:24:25;4.67;;;2.27;;
27847;SDS011;15212;48.830;8.730;2023-06-05T00:26:53;5.25;;;2.10;;
27847;SDS011;15212;48.830;8.730;2023-06-05T00:29:22;5.72;;;2.10;;
27847;SDS011;15212;48.830;8.730;2023-06-05T00:31:50;5.87;;;2.12;;
27847;SDS011;15212;48.830;8.730;2023-06-05T00:34:19;6.22;;;2.33;;
27847;SDS011;15212;48.830;8.730;2023-06-05T00:36:47;6.75;;;2.20;;
27847;SDS011;15212;48.830;8.730;2023-06-05T00:39:16;5.15;;;2.17;;
27847;SDS011;15212;48.830;8.730;2023-06-05T00:41:45;4.75;;;1.98;;
27847;SDS011;15212;48.830;8.730;2023-06-05T00:44:14;4.70;;;2.20;;
27847;SDS011;15212;48.830;8.730;2023-06-05T00:46:44;3.85;;;2.27;;
27847;SDS011;15212;48.830;8.730;2023-06-05T00:49:14;3.17;;;1.90;;
27847;SDS011;15212;48.830;8.730;2023-06-05T00:51:43;6.87;;;2.05;;
27847;SDS011;15212;48.830;8.730;2023-06-05T00:54:12;5.28;;;2.45;;
27847;SDS011;15212;48.830;8.730;2023-06-05T00:56:41;3.75;;;2.22;;
27847;SDS011;15212;48.830;8.730;2023-06-05T00:59:10;4.17;;;2.00;;
27847;SDS011;15212;48.830;8.730;2023-06-05T01:01:40;3.20;;;2.02;;
27847;SDS011;15212;48.830;8.730;2023-06-05T01:04:08;5.53;;;2.47;;
27847;SDS011;15212;48.830;8.730;2023-06-05T01:06:37;3.42;;;2.00;;
27847;SDS011;15212;48.830;8.730;2023-06-05T01:09:07;6.47;;;2.20;;
27847;SDS011;15212;48.830;8.730;2023-06-05T01:11:38;4.97;;;2.30;;
27847;SDS011;15212;48.830;8.730;2023-06-05T01:14:21;3.80;;;2.10;;
27847;SDS011;15212;48.830;8.730;2023-06-05T01:16:53;3.50;;;2.17;;
27847;SDS011;15212;48.830;8.730;2023-06-05T01:19:25;5.83;;;2.33;;
27847;SDS011;15212;48.830;8.730;2023-06-05T01:21:57;5.65;;;2.00;;
27847;SDS011;15212;48.830;8.730;2023-06-05T01:24:28;5.10;;;2.02;;
27847;SDS011;15212;48.830;8.730;2023-06-05T01:29:48;4.10;;;2.27;;
27847;SDS011;15212;48.830;8.730;2023-06-05T01:32:33;8.60;;;2.33;;
27847;SDS011;15212;48.830;8.730;2023-06-05T01:35:29;4.00;;;2.08;;
27847;SDS011;15212;48.830;8.730;2023-06-05T01:38:00;5.30;;;2.10;;
27847;SDS011;15212;48.830;8.730;2023-06-05T01:40:31;5.53;;;2.20;;
27847;SDS011;15212;48.830;8.730;2023-06-05T01:43:01;4.60;;;2.37;;
27847;SDS011;15212;48.830;8.730;2023-06-05T01:45:31;4.05;;;2.30;;
27847;SDS011;15212;48.830;8.730;2023-06-05T01:48:02;3.47;;;2.20;;
27847;SDS011;15212;48.830;8.730;2023-06-05T01:50:34;4.85;;;2.30;;
27847;SDS011;15212;48.830;8.730;2023-06-05T01:53:04;3.17;;;2.05;;
27847;SDS011;15212;48.830;8.730;2023-06-05T01:55:33;3.30;;;2.05;;
27847;SDS011;15212;48.830;8.730;2023-06-05T01:58:03;4.47;;;2.22;;
27847;SDS011;15212;48.830;8.730;2023-06-05T02:00:31;4.00;;;2.40;;
27847;SDS011;15212;48.830;8.730;2023-06-05T02:03:02;4.25;;;2.50;;
27847;SDS011;15212;48.830;8.730;2023-06-05T02:05:31;4.72;;;2.25;;
27847;SDS011;15212;48.830;8.730;2023-06-05T02:07:59;3.87;;;2.30;;
27847;SDS011;15212;48.830;8.730;2023-06-05T02:10:29;3.83;;;2.10;;
27847;SDS011;15212;48.830;8.730;2023-06-05T02:12:58;3.47;;;2.33;;
27847;SDS011;15212;48.830;8.730;2023-06-05T02:15:26;5.35;;;2.30;;
27847;SDS011;15212;48.830;8.730;2023-06-05T02:17:56;6.37;;;2.45;;
27847;SDS011;15212;48.830;8.730;2023-06-05T02:20:27;4.67;;;2.40;;
27847;SDS011;15212;48.830;8.730;2023-06-05T02:22:56;5.00;;;2.20;;
27847;SDS011;15212;48.830;8.730;2023-06-05T02:25:25;7.17;;;2.40;;
27847;SDS011;15212;48.830;8.730;2023-06-05T02:27:54;5.90;;;2.17;;
27847;SDS011;15212;48.830;8.730;2023-06-05T02:30:23;13.60;;;2.45;;
27847;SDS011;15212;48.830;8.730;2023-06-05T02:32:52;4.03;;;2.35;;
27847;SDS011;15212;48.830;8.730;2023-06-05T02:35:22;3.85;;;2.37;;
27847;SDS011;15212;48.830;8.730;2023-06-05T02:37:51;7.15;;;2.83;;
27847;SDS011;15212;48.830;8.730;2023-06-05T02:40:19;6.45;;;2.58;;
27847;SDS011;15212;48.830;8.730;2023-06-05T02:42:48;6.90;;;2.52;;
27847;SDS011;15212;48.830;8.730;2023-06-05T02:45:16;4.53;;;2.50;;
27847;SDS011;15212;48.830;8.730;2023-06-05T02:47:45;5.78;;;2.55;;
27847;SDS011;15212;48.830;8.730;2023-06-05T02:50:15;6.78;;;2.33;;
27847;SDS011;15212;48.830;8.730;2023-06-05T02:52:43;5.75;;;2.52;;
27847;SDS011;15212;48.830;8.730;2023-06-05T02:55:12;6.33;;;2.08;;
27847;SDS011;15212;48.830;8.730;2023-06-05T02:57:40;5.17;;;2.20;;
27847;SDS011;15212;48.830;8.730;2023-06-05T03:00:10;3.85;;;2.50;;
27847;SDS011;15212;48.830;8.730;2023-06-05T03:02:41;4.87;;;2.40;;
27847;SDS011;15212;48.830;8.730;2023-06-05T03:05:11;3.83;;;2.52;;
27847;SDS011;15212;48.830;8.730;2023-06-05T03:07:40;7.53;;;2.77;;
27847;SDS011;15212;48.830;8.730;2023-06-05T03:10:09;7.42;;;2.58;;
27847;SDS011;15212;48.830;8.730;2023-06-05T03:12:37;3.95;;;2.58;;
27847;SDS011;15212;48.830;8.730;2023-06-05T03:15:06;5.10;;;2.67;;
27847;SDS011;15212;48.830;8.730;2023-06-05T03:17:35;4.50;;;2.27;;
27847;SDS011;15212;48.830;8.730;2023-06-05T03:20:04;6.53;;;2.60;;
27847;SDS011;15212;48.830;8.730;2023-06-05T03:22:34;4.05;;;2.55;;
27847;SDS011;15212;48.830;8.730;2023-06-05T03:25:04;7.85;;;2.77;;
27847;SDS011;15212;48.830;8.730;2023-06-05T03:27:34;5.40;;;2.50;;
27847;SDS011;15212;48.830;8.730;2023-06-05T03:30:03;7.85;;;2.95;;
27847;SDS011;15212;48.830;8.730;2023-06-05T03:32:34;6.50;;;2.47;;
27847;SDS011;15212;48.830;8.730;2023-06-05T03:35:03;5.85;;;2.52;;
27847;SDS011;15212;48.830;8.730;2023-06-05T03:37:32;5.70;;;2.45;;
27847;SDS011;15212;48.830;8.730;2023-06-05T03:40:00;4.92;;;2.50;;
27847;SDS011;15212;48.830;8.730;2023-06-05T03:42:30;4.80;;;2.55;;
27847;SDS011;15212;48.830;8.730;2023-06-05T03:44:59;7.58;;;2.50;;
27847;SDS011;15212;48.830;8.730;2023-06-05T03:47:27;9.40;;;2.42;;
27847;SDS011;15212;48.830;8.730;2023-06-05T03:49:55;5.30;;;2.47;;
27847;SDS011;15212;48.830;8.730;2023-06-05T03:52:25;5.17;;;2.77;;
27847;SDS011;15212;48.830;8.730;2023-06-05T03:54:54;4.80;;;2.20;;
27847;SDS011;15212;48.830;8.730;2023-06-05T03:57:23;5.00;;;2.62;;
27847;SDS011;15212;48.830;8.730;2023-06-05T03:59:51;5.87;;;2.98;;
27847;SDS011;15212;48.830;8.730;2023-06-05T04:02:20;7.42;;;3.12;;
27847;SDS011;15212;48.830;8.730;2023-06-05T04:04:48;10.72;;;2.70;;
27847;SDS011;15212;48.830;8.730;2023-06-05T04:07:17;7.58;;;2.77;;
27847;SDS011;15212;48.830;8.730;2023-06-05T04:09:46;6.85;;;2.70;;
27847;SDS011;15212;48.830;8.730;2023-06-05T04:12:15;7.22;;;2.87;;
27847;SDS011;15212;48.830;8.730;2023-06-05T04:14:45;8.78;;;2.85;;
27847;SDS011;15212;48.830;8.730;2023-06-05T04:17:13;6.55;;;2.45;;
27847;SDS011;15212;48.830;8.730;2023-06-05T04:19:41;7.20;;;2.55;;
27847;SDS011;15212;48.830;8.730;2023-06-05T04:22:10;5.40;;;2.83;;
27847;SDS011;15212;48.830;8.730;2023-06-05T04:24:38;5.30;;;2.72;;
27847;SDS011;15212;48.830;8.730;2023-06-05T04:27:07;5.47;;;2.42;;
27847;SDS011;15212;48.830;8.730;2023-06-05T04:29:36;4.15;;;2.40;;
27847;SDS011;15212;48.830;8.730;2023-06-05T04:32:04;6.53;;;2.90;;
27847;SDS011;15212;48.830;8.730;2023-06-05T04:34:33;6.90;;;2.65;;
27847;SDS011;15212;48.830;8.730;2023-06-05T04:37:01;5.45;;;2.77;;
27847;SDS011;15212;48.830;8.730;2023-06-05T04:39:30;5.05;;;2.50;;
27847;SDS011;15212;48.830;8.730;2023-06-05T04:41:59;5.85;;;2.72;;
27847;SDS011;15212;48.830;8.730;2023-06-05T04:44:27;4.70;;;2.58;;
27847;SDS011;15212;48.830;8.730;2023-06-05T04:46:55;5.67;;;2.40;;
27847;SDS011;15212;48.830;8.730;2023-06-05T04:49:24;6.50;;;2.87;;
27847;SDS011;15212;48.830;8.730;2023-06-05T04:51:54;3.75;;;2.62;;
27847;SDS011;15212;48.830;8.730;2023-06-05T04:54:24;5.25;;;2.65;;
27847;SDS011;15212;48.830;8.730;2023-06-05T04:56:53;6.42;;;2.58;;
27847;SDS011;15212;48.830;8.730;2023-06-05T04:59:21;4.95;;;2.83;;
27847;SDS011;15212;48.830;8.730;2023-06-05T05:01:49;4.30;;;2.40;;
27847;SDS011;15212;48.830;8.730;2023-06-05T05:04:18;5.00;;;2.47;;
27847;SDS011;15212;48.830;8.730;2023-06-05T05:06:47;5.75;;;2.80;;
27847;SDS011;15212;48.830;8.730;2023-06-05T05:09:17;6.35;;;2.40;;
27847;SDS011;15212;48.830;8.730;2023-06-05T05:11:45;4.80;;;2.52;;
27847;SDS011;15212;48.830;8.730;2023-06-05T05:14:14;6.30;;;2.60;;
27847;SDS011;15212;48.830;8.730;2023-06-05T05:16:43;4.30;;;2.60;;
27847;SDS011;15212;48.830;8.730;2023-06-05T05:19:12;6.67;;;2.52;;
27847;SDS011;15212;48.830;8.730;2023-06-05T05:21:40;5.40;;;2.60;;
27847;SDS011;15212;48.830;8.730;2023-06-05T05:24:08;4.65;;;2.67;;
27847;SDS011;15212;48.830;8.730;2023-06-05T05:26:37;3.83;;;2.35;;
27847;SDS011;15212;48.830;8.730;2023-06-05T05:29:08;6.30;;;2.37;;
27847;SDS011;15212;48.830;8.730;2023-06-05T05:31:36;6.40;;;2.65;;
27847;SDS011;15212;48.830;8.730;2023-06-05T05:34:05;4.53;;;2.50;;
27847;SDS011;15212;48.830;8.730;2023-06-05T05:36:33;4.50;;;2.45;;
27847;SDS011;15212;48.830;8.730;2023-06-05T05:39:04;3.60;;;2.33;;
27847;SDS011;15212;48.830;8.730;2023-06-05T05:41:34;7.03;;;2.70;;
27847;SDS011;15212;48.830;8.730;2023-06-05T05:44:02;3.52;;;2.22;;
27847;SDS011;15212;48.830;8.730;2023-06-05T05:46:31;4.33;;;2.47;;
27847;SDS011;15212;48.830;8.730;2023-06-05T05:48:59;6.83;;;2.50;;
27847;SDS011;15212;48.830;8.730;2023-06-05T05:51:28;5.90;;;2.50;;
27847;SDS011;15212;48.830;8.730;2023-06-05T05:53:56;3.15;;;2.25;;
27847;SDS011;15212;48.830;8.730;2023-06-05T05:56:25;4.70;;;2.50;;
27847;SDS011;15212;48.830;8.730;2023-06-05T05:58:53;4.12;;;2.30;;
27847;SDS011;15212;48.830;8.730;2023-06-05T06:01:21;5.12;;;2.58;;
27847;SDS011;15212;48.830;8.730;2023-06-05T06:03:50;4.47;;;2.45;;
27847;SDS011;15212;48.830;8.730;2023-06-05T06:06:18;3.80;;;2.17;;
27847;SDS011;15212;48.830;8.730;2023-06-05T06:08:47;3.33;;;2.10;;
27847;SDS011;15212;48.830;8.730;2023-06-05T06:11:15;4.42;;;2.42;;
27847;SDS011;15212;48.830;8.730;2023-06-05T06:13:44;4.58;;;2.25;;
27847;SDS011;15212;48.830;8.730;2023-06-05T06:16:13;4.28;;;2.17;;
27847;SDS011;15212;48.830;8.730;2023-06-05T06:18:42;3.12;;;2.05;;
27847;SDS011;15212;48.830;8.730;2023-06-05T06:21:10;5.37;;;2.20;;
27847;SDS011;15212;48.830;8.730;2023-06-05T06:23:39;3.37;;;2.15;;
27847;SDS011;15212;48.830;8.730;2023-06-05T06:26:08;3.80;;;2.42;;
27847;SDS011;15212;48.830;8.730;2023-06-05T06:28:37;3.15;;;2.30;;
27847;SDS011;15212;48.830;8.730;2023-06-05T06:31:05;4.92;;;2.20;;
27847;SDS011;15212;48.830;8.730;2023-06-05T06:33:34;3.08;;;2.27;;
27847;SDS011;15212;48.830;8.730;2023-06-05T06:36:03;5.72;;;2.42;;
27847;SDS011;15212;48.830;8.730;2023-06-05T06:38:32;5.25;;;2.30;;
27847;SDS011;15212;48.830;8.730;2023-06-05T06:41:00;3.00;;;2.05;;
27847;SDS011;15212;48.830;8.730;2023-06-05T06:43:29;3.37;;;2.25;;
27847;SDS011;15212;48.830;8.730;2023-06-05T06:45:57;3.87;;;2.22;;
27847;SDS011;15212;48.830;8.730;2023-06-05T06:48:26;3.15;;;2.25;;
27847;SDS011;15212;48.830;8.730;2023-06-05T06:50:54;3.37;;;2.15;;
27847;SDS011;15212;48.830;8.730;2023-06-05T06:53:22;3.72;;;2.55;;
27847;SDS011;15212;48.830;8.730;2023-06-05T06:55:51;4.15;;;2.20;;
27847;SDS011;15212;48.830;8.730;2023-06-05T06:58:20;3.27;;;2.25;;
27847;SDS011;15212;48.830;8.730;2023-06-05T07:00:49;3.00;;;1.75;;
27847;SDS011;15212;48.830;8.730;2023-06-05T07:03:18;4.35;;;2.20;;
27847;SDS011;15212;48.830;8.730;2023-06-05T07:05:46;3.02;;;2.10;;
27847;SDS011;15212;48.830;8.730;2023-06-05T07:08:15;2.70;;;2.08;;
27847;SDS011;15212;48.830;8.730;2023-06-05T07:10:43;3.33;;;2.27;;
27847;SDS011;15212;48.830;8.730;2023-06-05T07:13:11;3.20;;;2.00;;
27847;SDS011;15212;48.830;8.730;2023-06-05T07:15:40;3.22;;;2.17;;
27847;SDS011;15212;48.830;8.730;2023-06-05T07:18:08;6.28;;;2.00;;
27847;SDS011;15212;48.830;8.730;2023-06-05T07:20:36;3.15;;;2.05;;
27847;SDS011;15212;48.830;8.730;2023-06-05T07:23:05;4.53;;;2.17;;
27847;SDS011;15212;48.830;8.730;2023-06-05T07:25:34;3.30;;;2.10;;
27847;SDS011;15212;48.830;8.730;2023-06-05T07:28:09;3.60;;;2.25;;
27847;SDS011;15212;48.830;8.730;2023-06-05T07:30:37;3.52;;;2.35;;
27847;SDS011;15212;48.830;8.730;2023-06-05T07:33:08;3.22;;;2.00;;
27847;SDS011;15212;48.830;8.730;2023-06-05T07:35:36;3.52;;;2.12;;
27847;SDS011;15212;48.830;8.730;2023-06-05T07:38:05;2.92;;;2.08;;
27847;SDS011;15212;48.830;8.730;2023-06-05T07:40:33;2.98;;;2.00;;
27847;SDS011;15212;48.830;8.730;2023-06-05T07:43:03;4.20;;;2.12;;
27847;SDS011;15212;48.830;8.730;2023-06-05T07:45:32;4.50;;;2.15;;
27847;SDS011;15212;48.830;8.730;2023-06-05T07:48:00;4.17;;;2.15;;
27847;SDS011;15212;48.830;8.730;2023-06-05T07:50:29;6.30;;;2.27;;
27847;SDS011;15212;48.830;8.730;2023-06-05T07:52:57;5.37;;;2.10;;
27847;SDS011;15212;48.830;8.730;2023-06-05T07:55:27;7.83;;;2.30;;
27847;SDS011;15212;48.830;8.730;2023-06-05T07:57:55;3.50;;;2.15;;
27847;SDS011;15212;48.830;8.730;2023-06-05T08:00:25;5.37;;;2.50;;
27847;SDS011;15212;48.830;8.730;2023-06-05T08:02:54;4.30;;;2.30;;
27847;SDS011;15212;48.830;8.730;2023-06-05T08:05:24;3.12;;;2.25;;
27847;SDS011;15212;48.830;8.730;2023-06-05T08:07:52;3.90;;;2.42;;
27847;SDS011;15212;48.830;8.730;2023-06-05T08:10:21;5.58;;;2.33;;
27847;SDS011;15212;48.830;8.730;2023-06-05T08:12:49;4.83;;;2.20;;
27847;SDS011;15212;48.830;8.730;2023-06-05T08:15:18;5.55;;;2.40;;
27847;SDS011;15212;48.830;8.730;2023-06-05T08:17:46;4.70;;;3.17;;
27847;SDS011;15212;48.830;8.730;2023-06-05T08:20:15;4.95;;;2.58;;
27847;SDS011;15212;48.830;8.730;2023-06-05T08:22:43;5.67;;;2.30;;
27847;SDS011;15212;48.830;8.730;2023-06-05T08:25:11;4.58;;;2.58;;
27847;SDS011;15212;48.830;8.730;2023-06-05T08:27:40;5.60;;;2.87;;
27847;SDS011;15212;48.830;8.730;2023-06-05T08:30:09;4.72;;;2.70;;
27847;SDS011;15212;48.830;8.730;2023-06-05T08:32:38;7.22;;;2.95;;
27847;SDS011;15212;48.830;8.730;2023-06-05T08:35:09;4.92;;;2.80;;
27847;SDS011;15212;48.830;8.730;2023-06-05T08:37:38;7.17;;;2.90;;
27847;SDS011;15212;48.830;8.730;2023-06-05T08:40:07;5.70;;;3.20;;
27847;SDS011;15212;48.830;8.730;2023-06-05T08:42:36;6.22;;;2.92;;
27847;SDS011;15212;48.830;8.730;2023-06-05T08:45:06;5.17;;;3.20;;
27847;SDS011;15212;48.830;8.730;2023-06-05T08:47:36;6.50;;;4.05;;
27847;SDS011;15212;48.830;8.730;2023-06-05T08:50:07;6.67;;;3.60;;
27847;SDS011;15212;48.830;8.730;2023-06-05T08:52:38;8.85;;;3.47;;
27847;SDS011;15212;48.830;8.730;2023-06-05T08:57:39;6.87;;;3.70;;
27847;SDS011;15212;48.830;8.730;2023-06-05T09:00:10;6.92;;;3.87;;
27847;SDS011;15212;48.830;8.730;2023-06-05T09:02:41;11.35;;;4.12;;
27847;SDS011;15212;48.830;8.730;2023-06-05T09:05:15;7.12;;;3.95;;
27847;SDS011;15212;48.830;8.730;2023-06-05T09:07:44;6.12;;;3.55;;
27847;SDS011;15212;48.830;8.730;2023-06-05T09:10:23;5.75;;;3.90;;
27847;SDS011;15212;48.830;8.730;2023-06-05T09:12:57;7.00;;;3.90;;
27847;SDS011;15212;48.830;8.730;2023-06-05T09:15:31;6.15;;;3.55;;
27847;SDS011;15212;48.830;8.730;2023-06-05T09:18:04;5.75;;;4.10;;
27847;SDS011;15212;48.830;8.730;2023-06-05T09:20:43;5.97;;;4.12;;
27847;SDS011;15212;48.830;8.730;2023-06-05T09:23:29;8.15;;;4.08;;
27847;SDS011;15212;48.830;8.730;2023-06-05T09:25:56;7.65;;;4.47;;
27847;SDS011;15212;48.830;8.730;2023-06-05T09:28:27;6.37;;;4.60;;
27847;SDS011;15212;48.830;8.730;2023-06-05T09:30:56;6.58;;;4.55;;
27847;SDS011;15212;48.830;8.730;2023-06-05T09:33:27;6.75;;;4.45;;
27847;SDS011;15212;48.830;8.730;2023-06-05T09:36:03;7.15;;;4.83;;
27847;SDS011;15212;48.830;8.730;2023-06-05T09:38:39;7.92;;;5.00;;
27847;SDS011;15212;48.830;8.730;2023-06-05T09:41:13;6.75;;;4.97;;
27847;SDS011;15212;48.830;8.730;2023-06-05T09:43:44;8.75;;;5.37;;
27847;SDS011;15212;48.830;8.730;2023-06-05T09:46:15;8.73;;;4.47;;
27847;SDS011;15212;48.830;8.730;2023-06-05T09:48:49;8.90;;;4.80;;
27847;SDS011;15212;48.830;8.730;2023-06-05T09:51:20;9.35;;;4.95;;
27847;SDS011;15212;48.830;8.730;2023-06-05T09:53:48;9.53;;;5.50;;
27847;SDS011;15212;48.830;8.730;2023-06-05T09:56:18;8.30;;;5.65;;
27847;SDS011;15212;48.830;8.730;2023-06-05T09:58:49;8.95;;;5.47;;
27847;SDS011;15212;48.830;8.730;2023-06-05T10:01:19;8.25;;;5.30;;
27847;SDS011;15212;48.830;8.730;2023-06-05T10:03:59;9.80;;;5.28;;
27847;SDS011;15212;48.830;8.730;2023-06-05T10:06:32;12.90;;;5.30;;
27847;SDS011;15212;48.830;8.730;2023-06-05T10:09:02;8.10;;;5.30;;
27847;SDS011;15212;48.830;8.730;2023-06-05T10:11:31;9.38;;;5.55;;
27847;SDS011;15212;48.830;8.730;2023-06-05T10:14:01;9.75;;;5.33;;
27847;SDS011;15212;48.830;8.730;2023-06-05T10:16:31;8.25;;;5.33;;
27847;SDS011;15212;48.830;8.730;2023-06-05T10:19:01;8.48;;;5.33;;
27847;SDS011;15212;48.830;8.730;2023-06-05T10:21:31;10.55;;;5.80;;
27847;SDS011;15212;48.830;8.730;2023-06-05T10:24:16;8.98;;;5.60;;
27847;SDS011;15212;48.830;8.730;2023-06-05T10:26:52;13.62;;;5.95;;
27847;SDS011;15212;48.830;8.730;2023-06-05T10:29:32;9.45;;;5.35;;
27847;SDS011;15212;48.830;8.730;2023-06-05T10:38:18;9.05;;;5.40;;
27847;SDS011;15212;48.830;8.730;2023-06-05T10:40:54;12.82;;;5.92;;
27847;SDS011;15212;48.830;8.730;2023-06-05T10:46:32;10.65;;;4.45;;
27847;SDS011;15212;48.830;8.730;2023-06-05T10:51:43;11.03;;;4.25;;
27847;SDS011;15212;48.830;8.730;2023-06-05T10:56:56;7.80;;;4.53;;
27847;SDS011;15212;48.830;8.730;2023-06-05T10:59:36;8.18;;;4.45;;
27847;SDS011;15212;48.830;8.730;2023-06-05T11:07:27;7.33;;;4.20;;
27847;SDS011;15212;48.830;8.730;2023-06-05T11:15:13;6.70;;;4.17;;
27847;SDS011;15212;48.830;8.730;2023-06-05T11:17:44;10.28;;;4.08;;
27847;SDS011;15212;48.830;8.730;2023-06-05T11:25:35;5.58;;;3.62;;
27847;SDS011;15212;48.830;8.730;2023-06-05T11:28:05;5.62;;;3.90;;
27847;SDS011;15212;48.830;8.730;2023-06-05T11:30:39;6.22;;;4.00;;
27847;SDS011;15212;48.830;8.730;2023-06-05T11:33:13;6.33;;;3.77;;
27847;SDS011;15212;48.830;8.730;2023-06-05T11:35:47;11.80;;;3.90;;
27847;SDS011;15212;48.830;8.730;2023-06-05T11:38:19;5.42;;;3.70;;
27847;SDS011;15212;48.830;8.730;2023-06-05T11:40:48;7.67;;;4.00;;
27847;SDS011;15212;48.830;8.730;2023-06-05T11:43:17;7.53;;;3.95;;
27847;SDS011;15212;48.830;8.730;2023-06-05T11:45:50;5.20;;;3.60;;
27847;SDS011;15212;48.830;8.730;2023-06-05T11:48:22;7.17;;;4.22;;
27847;SDS011;15212;48.830;8.730;2023-06-05T11:50:56;7.83;;;4.50;;
27847;SDS011;15212;48.830;8.730;2023-06-05T11:53:32;6.33;;;4.37;;
27847;SDS011;15212;48.830;8.730;2023-06-05T11:56:10;6.30;;;4.12;;
27847;SDS011;15212;48.830;8.730;2023-06-05T11:58:36;8.45;;;4.37;;
27847;SDS011;15212;48.830;8.730;2023-06-05T12:01:11;6.75;;;3.98;;
27847;SDS011;15212;48.830;8.730;2023-06-05T12:04:04;9.70;;;4.00;;
27847;SDS011;15212;48.830;8.730;2023-06-05T12:06:40;6.67;;;4.17;;
27847;SDS011;15212;48.830;8.730;2023-06-05T12:09:12;7.12;;;4.42;;
27847;SDS011;15212;48.830;8.730;2023-06-05T12:11:42;6.60;;;4.03;;
27847;SDS011;15212;48.830;8.730;2023-06-05T12:14:11;8.03;;;3.83;;
27847;SDS011;15212;48.830;8.730;2023-06-05T12:16:42;6.87;;;3.92;;
27847;SDS011;15212;48.830;8.730;2023-06-05T12:19:12;7.47;;;4.08;;
27847;SDS011;15212;48.830;8.730;2023-06-05T12:21:43;6.62;;;3.83;;
27847;SDS011;15212;48.830;8.730;2023-06-05T12:24:14;6.62;;;3.60;;
27847;SDS011;15212;48.830;8.730;2023-06-05T12:26:53;6.10;;;3.30;;
27847;SDS011;15212;48.830;8.730;2023-06-05T12:29:26;8.38;;;3.90;;
27847;SDS011;15212;48.830;8.730;2023-06-05T12:31:56;5.45;;;3.33;;
27847;SDS011;15212;48.830;8.730;2023-06-05T12:34:43;6.78;;;3.55;;
27847;SDS011;15212;48.830;8.730;2023-06-05T12:37:49;11.05;;;3.77;;
27847;SDS011;15212;48.830;8.730;2023-06-05T12:39:55;5.97;;;3.37;;
27847;SDS011;15212;48.830;8.730;2023-06-05T12:42:24;6.50;;;3.87;;
27847;SDS011;15212;48.830;8.730;2023-06-05T12:44:55;8.68;;;3.47;;
27847;SDS011;15212;48.830;8.730;2023-06-05T12:47:23;6.05;;;3.72;;
27847;SDS011;15212;48.830;8.730;2023-06-05T12:49:51;4.15;;;3.05;;
27847;SDS011;15212;48.830;8.730;2023-06-05T12:52:20;8.98;;;3.80;;
27847;SDS011;15212;48.830;8.730;2023-06-05T12:54:56;6.62;;;3.60;;
27847;SDS011;15212;48.830;8.730;2023-06-05T12:57:25;5.17;;;3.22;;
27847;SDS011;15212;48.830;8.730;2023-06-05T12:59:54;8.45;;;3.20;;
27847;SDS011;15212;48.830;8.730;2023-06-05T13:02:22;5.37;;;3.12;;
27847;SDS011;15212;48.830;8.730;2023-06-05T13:04:51;7.55;;;3.33;;
27847;SDS011;15212;48.830;8.730;2023-06-05T13:07:19;6.17;;;3.30;;
27847;SDS011;15212;48.830;8.730;2023-06-05T13:09:48;5.55;;;3.67;;
27847;SDS011;15212;48.830;8.730;2023-06-05T13:12:17;5.85;;;3.37;;
27847;SDS011;15212;48.830;8.730;2023-06-05T13:14:46;7.58;;;3.10;;
27847;SDS011;15212;48.830;8.730;2023-06-05T13:17:14;4.75;;;3.27;;
27847;SDS011;15212;48.830;8.730;2023-06-05T13:19:43;7.72;;;3.12;;
27847;SDS011;15212;48.830;8.730;2023-06-05T13:22:11;7.37;;;3.02;;
27847;SDS011;15212;48.830;8.730;2023-06-05T13:24:39;3.60;;;3.00;;
27847;SDS011;15212;48.830;8.730;2023-06-05T13:27:08;5.03;;;3.60;;
27847;SDS011;15212;48.830;8.730;2023-06-05T13:29:37;6.65;;;3.22;;
27847;SDS011;15212;48.830;8.730;2023-06-05T13:32:06;5.03;;;3.22;;
27847;SDS011;15212;48.830;8.730;2023-06-05T13:34:35;6.83;;;3.62;;
27847;SDS011;15212;48.830;8.730;2023-06-05T13:37:03;6.42;;;3.17;;
27847;SDS011;15212;48.830;8.730;2023-06-05T13:39:32;4.70;;;3.25;;
27847;SDS011;15212;48.830;8.730;2023-06-05T13:42:00;6.30;;;2.80;;
27847;SDS011;15212;48.830;8.730;2023-06-05T13:44:29;7.30;;;3.27;;
27847;SDS011;15212;48.830;8.730;2023-06-05T13:46:57;6.12;;;3.22;;
27847;SDS011;15212;48.830;8.730;2023-06-05T13:49:27;5.03;;;3.37;;
27847;SDS011;15212;48.830;8.730;2023-06-05T13:51:59;5.78;;;3.30;;
27847;SDS011;15212;48.830;8.730;2023-06-05T13:54:27;6.40;;;2.83;;
27847;SDS011;15212;48.830;8.730;2023-06-05T13:56:56;4.28;;;3.10;;
27847;SDS011;15212;48.830;8.730;2023-06-05T13:59:25;4.60;;;3.42;;
27847;SDS011;15212;48.830;8.730;2023-06-05T14:01:54;4.67;;;3.25;;
27847;SDS011;15212;48.830;8.730;2023-06-05T14:04:22;5.15;;;3.40;;
27847;SDS011;15212;48.830;8.730;2023-06-05T14:06:50;5.92;;;3.40;;
27847;SDS011;15212;48.830;8.730;2023-06-05T14:09:20;4.15;;;3.15;;
27847;SDS011;15212;48.830;8.730;2023-06-05T14:11:49;5.12;;;3.15;;
27847;SDS011;15212;48.830;8.730;2023-06-05T14:14:17;5.65;;;3.37;;
27847;SDS011;15212;48.830;8.730;2023-06-05T14:16:45;5.28;;;3.27;;
27847;SDS011;15212;48.830;8.730;2023-06-05T14:19:14;5.53;;;3.62;;
27847;SDS011;15212;48.830;8.730;2023-06-05T14:21:42;6.12;;;3.37;;
27847;SDS011;15212;48.830;8.730;2023-06-05T14:24:12;6.17;;;3.37;;
27847;SDS011;15212;48.830;8.730;2023-06-05T14:26:41;7.92;;;3.30;;
27847;SDS011;15212;48.830;8.730;2023-06-05T14:29:09;6.87;;;3.40;;
27847;SDS011;15212;48.830;8.730;2023-06-05T14:31:38;8.28;;;3.58;;
27847;SDS011;15212;48.830;8.730;2023-06-05T14:34:06;5.45;;;3.37;;
27847;SDS011;15212;48.830;8.730;2023-06-05T14:36:35;5.58;;;3.52;;
27847;SDS011;15212;48.830;8.730;2023-06-05T14:39:03;6.22;;;3.75;;
27847;SDS011;15212;48.830;8.730;2023-06-05T14:41:32;6.28;;;3.70;;
27847;SDS011;15212;48.830;8.730;2023-06-05T14:44:01;4.35;;;3.33;;
27847;SDS011;15212;48.830;8.730;2023-06-05T14:46:29;6.70;;;3.37;;
27847;SDS011;15212;48.830;8.730;2023-06-05T14:48:57;6.60;;;3.27;;
27847;SDS011;15212;48.830;8.730;2023-06-05T14:51:26;4.72;;;3.40;;
27847;SDS011;15212;48.830;8.730;2023-06-05T14:53:55;8.20;;;3.80;;
27847;SDS011;15212;48.830;8.730;2023-06-05T14:56:23;6.85;;;3.60;;
27847;SDS011;15212;48.830;8.730;2023-06-05T14:58:52;4.20;;;3.20;;
27847;SDS011;15212;48.830;8.730;2023-06-05T15:01:20;5.05;;;3.62;;
27847;SDS011;15212;48.830;8.730;2023-06-05T15:03:49;5.22;;;3.45;;
27847;SDS011;15212;48.830;8.730;2023-06-05T15:06:17;5.37;;;4.05;;
27847;SDS011;15212;48.830;8.730;2023-06-05T15:08:45;8.80;;;3.67;;
27847;SDS011;15212;48.830;8.730;2023-06-05T15:11:14;5.65;;;3.60;;
27847;SDS011;15212;48.830;8.730;2023-06-05T15:13:42;4.45;;;3.20;;
27847;SDS011;15212;48.830;8.730;2023-06-05T15:16:11;4.97;;;3.27;;
27847;SDS011;15212;48.830;8.730;2023-06-05T15:18:39;6.25;;;3.62;;
27847;SDS011;15212;48.830;8.730;2023-06-05T15:21:08;5.67;;;3.40;;
27847;SDS011;15212;48.830;8.730;2023-06-05T15:23:36;5.90;;;3.70;;
27847;SDS011;15212;48.830;8.730;2023-06-05T15:26:04;4.53;;;3.20;;
27847;SDS011;15212;48.830;8.730;2023-06-05T15:28:33;6.67;;;3.65;;
27847;SDS011;15212;48.830;8.730;2023-06-05T15:31:01;5.15;;;3.22;;
27847;SDS011;15212;48.830;8.730;2023-06-05T15:33:31;5.90;;;3.05;;
27847;SDS011;15212;48.830;8.730;2023-06-05T15:36:00;7.20;;;3.00;;
27847;SDS011;15212;48.830;8.730;2023-06-05T15:38:28;4.37;;;3.02;;
27847;SDS011;15212;48.830;8.730;2023-06-05T15:40:56;5.25;;;2.70;;